createdAt,value
2023-02-23T00:02:05.755Z,8.40
2023-02-23T00:04:33.101Z,7.68
2023-02-23T00:06:59.788Z,7.47
2023-02-23T00:09:27.730Z,9.45
2023-02-23T00:11:57.363Z,7.47
2023-02-23T00:14:29.122Z,7.85
2023-02-23T00:16:56.660Z,7.82
2023-02-23T00:19:24.849Z,9.50
2023-02-23T00:21:53.919Z,10.00
2023-02-23T00:24:21.121Z,7.30
2023-02-23T00:26:51.281Z,6.10
2023-02-23T00:29:20.954Z,5.57
2023-02-23T00:31:48.757Z,4.38
2023-02-23T00:34:21.101Z,2.42
2023-02-23T00:36:57.211Z,3.30
2023-02-23T00:39:26.539Z,4.93
2023-02-23T00:41:55.524Z,2.45
2023-02-23T00:44:24.294Z,3.55
2023-02-23T00:46:52.487Z,2.65
2023-02-23T00:49:21.976Z,4.10
2023-02-23T00:51:48.730Z,2.25
2023-02-23T00:54:16.933Z,3.50
2023-02-23T00:56:45.939Z,6.60
2023-02-23T00:59:13.869Z,6.40
2023-02-23T01:01:44.544Z,6.15
2023-02-23T01:04:12.838Z,4.53
2023-02-23T01:06:41.521Z,4.30
2023-02-23T01:09:14.710Z,4.38
2023-02-23T01:11:41.969Z,3.92
2023-02-23T01:14:10.682Z,2.70
2023-02-23T01:16:38.997Z,5.57
2023-02-23T01:19:06.119Z,1.90
2023-02-23T01:21:35.534Z,3.70
2023-02-23T01:24:03.065Z,5.20
2023-02-23T01:26:34.125Z,3.95
2023-02-23T01:31:30.913Z,2.25
2023-02-23T01:34:00.025Z,2.70
2023-02-23T01:36:29.059Z,2.08
2023-02-23T01:38:57.124Z,4.10
2023-02-23T01:41:25.002Z,2.83
2023-02-23T01:44:05.020Z,1.45
2023-02-23T01:46:40.373Z,1.45
2023-02-23T01:49:16.110Z,4.38
2023-02-23T01:52:11.354Z,3.72
2023-02-23T01:54:42.373Z,1.38
2023-02-23T01:57:13.947Z,0.98
2023-02-23T01:59:49.318Z,3.30
2023-02-23T02:02:23.175Z,1.92
2023-02-23T02:04:52.196Z,1.75
2023-02-23T02:07:25.895Z,1.42
2023-02-23T02:10:10.786Z,3.83
2023-02-23T02:12:39.145Z,2.40
2023-02-23T02:15:16.944Z,2.42
2023-02-23T02:17:58.733Z,2.05
2023-02-23T02:23:59.210Z,3.50
2023-02-23T02:26:41.027Z,2.92
2023-02-23T02:32:12.049Z,4.15
2023-02-23T02:35:03.433Z,1.85
2023-02-23T02:37:36.447Z,2.17
2023-02-23T02:40:38.521Z,1.60
2023-02-23T02:46:01.501Z,3.15
2023-02-23T02:48:43.428Z,2.60
2023-02-23T02:54:22.803Z,2.72
2023-02-23T02:56:52.074Z,1.83
2023-02-23T02:59:39.245Z,1.02
2023-02-23T03:02:25.746Z,4.75
2023-02-23T03:05:11.784Z,4.43
2023-02-23T03:08:38.742Z,5.60
2023-02-23T03:11:27.329Z,4.53
2023-02-23T03:14:52.010Z,4.30
2023-02-23T03:17:46.625Z,4.25
2023-02-23T03:20:59.037Z,7.15
2023-02-23T03:23:55.922Z,5.85
2023-02-23T03:27:01.923Z,5.72
2023-02-23T03:30:17.179Z,6.07
2023-02-23T03:33:14.880Z,5.22
2023-02-23T03:36:21.526Z,4.80
2023-02-23T03:39:27.106Z,4.13
2023-02-23T03:42:15.206Z,3.30
2023-02-23T03:45:04.159Z,4.07
2023-02-23T03:47:56.064Z,3.30
2023-02-23T03:53:51.674Z,5.32
2023-02-23T03:59:26.516Z,3.80
2023-02-23T04:02:14.448Z,3.83
2023-02-23T04:05:03.553Z,2.88
2023-02-23T04:07:50.026Z,4.05
2023-02-23T04:10:35.546Z,5.20
2023-02-23T04:13:16.553Z,3.00
2023-02-23T04:15:50.773Z,2.88
2023-02-23T04:18:23.386Z,3.75
2023-02-23T04:20:50.038Z,2.55
2023-02-23T04:23:17.453Z,2.08
2023-02-23T04:25:44.403Z,4.25
2023-02-23T04:28:10.957Z,3.00
2023-02-23T04:30:38.893Z,2.38
2023-02-23T04:33:05.409Z,3.88
2023-02-23T04:35:31.956Z,2.90
2023-02-23T04:37:58.813Z,2.38
2023-02-23T04:40:26.161Z,2.25
2023-02-23T04:42:53.410Z,2.70
2023-02-23T04:45:20.132Z,4.97
2023-02-23T04:47:46.769Z,2.80
2023-02-23T04:50:13.679Z,6.25
2023-02-23T04:52:40.722Z,2.65
2023-02-23T04:55:09.119Z,4.78
2023-02-23T04:57:35.844Z,2.88
2023-02-23T05:00:05.179Z,2.65
2023-02-23T05:02:32.075Z,4.18
2023-02-23T05:04:58.848Z,3.60
2023-02-23T05:07:25.502Z,4.68
2023-02-23T05:09:52.111Z,3.20
2023-02-23T05:12:18.789Z,5.00
2023-02-23T05:14:45.368Z,6.75
2023-02-23T05:17:11.968Z,5.90
2023-02-23T05:19:38.531Z,6.53
2023-02-23T05:22:05.117Z,5.18
2023-02-23T05:24:31.851Z,6.20
2023-02-23T05:26:58.914Z,6.60
2023-02-23T05:29:25.469Z,6.97
2023-02-23T05:31:52.099Z,4.07
2023-02-23T05:34:18.682Z,5.43
2023-02-23T05:36:45.247Z,4.38
2023-02-23T05:39:11.816Z,7.30
2023-02-23T05:41:38.536Z,6.10
2023-02-23T05:44:07.515Z,5.07
2023-02-23T05:46:34.213Z,4.85
2023-02-23T05:49:01.369Z,5.65
2023-02-23T05:51:29.919Z,6.65
2023-02-23T05:53:56.576Z,6.35
2023-02-23T05:56:23.550Z,5.65
2023-02-23T05:58:51.592Z,5.03
2023-02-23T06:01:18.830Z,7.88
2023-02-23T06:03:46.441Z,4.75
2023-02-23T06:06:12.994Z,6.25
2023-02-23T06:08:40.049Z,6.32
2023-02-23T06:11:07.982Z,5.80
2023-02-23T06:13:34.553Z,4.32
2023-02-23T06:16:01.366Z,5.85
2023-02-23T06:18:28.916Z,5.63
2023-02-23T06:21:01.033Z,6.10
2023-02-23T06:23:32.089Z,5.85
2023-02-23T06:26:00.049Z,7.43
2023-02-23T06:28:28.275Z,7.43
2023-02-23T06:30:55.848Z,7.32
2023-02-23T06:33:23.015Z,5.30
2023-02-23T06:35:49.940Z,9.02
2023-02-23T06:38:16.784Z,4.93
2023-02-23T06:40:43.433Z,7.13
2023-02-23T06:43:10.612Z,8.45
2023-02-23T06:45:37.128Z,6.53
2023-02-23T06:48:03.929Z,4.75
2023-02-23T06:50:30.781Z,6.35
2023-02-23T06:52:57.705Z,7.72
2023-02-23T06:55:24.742Z,6.60
2023-02-23T06:57:54.221Z,5.18
2023-02-23T07:00:21.257Z,9.93
2023-02-23T07:02:47.853Z,7.22
2023-02-23T07:05:14.474Z,8.77
2023-02-23T07:07:41.152Z,5.00
2023-02-23T07:10:08.095Z,8.13
2023-02-23T07:12:34.642Z,4.97
2023-02-23T07:15:01.222Z,8.60
2023-02-23T07:17:27.795Z,6.50
2023-02-23T07:19:54.692Z,6.60
2023-02-23T07:22:22.403Z,6.25
2023-02-23T07:24:49.061Z,7.65
2023-02-23T07:27:15.592Z,6.95
2023-02-23T07:29:42.134Z,6.18
2023-02-23T07:32:09.229Z,10.23
2023-02-23T07:34:37.108Z,7.18
2023-02-23T07:37:03.631Z,8.57
2023-02-23T07:39:31.034Z,7.50
2023-02-23T07:41:58.419Z,8.45
2023-02-23T07:44:24.978Z,8.32
2023-02-23T07:46:52.858Z,8.95
2023-02-23T07:49:19.466Z,8.65
2023-02-23T07:51:46.303Z,8.02
2023-02-23T07:54:13.558Z,10.27
2023-02-23T07:56:40.352Z,7.38
2023-02-23T07:59:06.933Z,7.35
2023-02-23T08:01:33.703Z,6.53
2023-02-23T08:04:00.875Z,10.23
2023-02-23T08:06:27.480Z,10.00
2023-02-23T08:08:54.010Z,8.77
2023-02-23T08:11:20.882Z,8.82
2023-02-23T08:13:47.585Z,11.93
2023-02-23T08:16:16.531Z,10.05
2023-02-23T08:18:43.185Z,9.95
2023-02-23T08:21:09.800Z,9.13
2023-02-23T08:23:36.389Z,11.00
2023-02-23T08:26:03.215Z,11.18
2023-02-23T08:28:30.768Z,13.25
2023-02-23T08:30:59.352Z,13.80
2023-02-23T08:33:26.216Z,10.95
2023-02-23T08:35:53.607Z,18.35
2023-02-23T08:38:20.387Z,10.88
2023-02-23T08:40:47.002Z,9.95
2023-02-23T08:43:13.531Z,12.38
2023-02-23T08:45:40.098Z,12.57
2023-02-23T08:48:07.898Z,9.60
2023-02-23T08:50:34.444Z,8.63
2023-02-23T08:53:00.960Z,9.63
2023-02-23T08:55:27.493Z,9.50
2023-02-23T08:57:54.051Z,8.35
2023-02-23T09:00:21.155Z,10.30
2023-02-23T09:02:48.285Z,9.40
2023-02-23T09:05:15.789Z,9.77
2023-02-23T09:07:46.243Z,10.75
2023-02-23T09:10:19.766Z,9.32
2023-02-23T09:12:46.402Z,7.40
2023-02-23T09:15:13.000Z,8.15
2023-02-23T09:17:41.337Z,9.60
2023-02-23T09:20:09.360Z,9.45
2023-02-23T09:22:37.029Z,13.18
2023-02-23T09:25:05.024Z,9.57
2023-02-23T09:27:31.813Z,9.55
2023-02-23T09:29:58.366Z,10.30
2023-02-23T09:32:24.950Z,9.93
2023-02-23T09:34:52.465Z,8.77
2023-02-23T09:37:19.388Z,10.88
2023-02-23T09:39:46.026Z,9.45
2023-02-23T09:42:30.645Z,10.48
2023-02-23T09:45:26.437Z,8.70
2023-02-23T09:48:04.918Z,7.82
2023-02-23T09:50:34.846Z,8.10
2023-02-23T09:53:07.656Z,5.80
2023-02-23T09:55:39.676Z,8.35
2023-02-23T09:58:12.885Z,12.23
2023-02-23T10:00:47.765Z,7.40
2023-02-23T10:03:31.212Z,13.88
2023-02-23T10:06:06.345Z,8.50
2023-02-23T10:09:14.547Z,8.73
2023-02-23T10:11:51.599Z,11.38
2023-02-23T10:14:52.879Z,8.60
2023-02-23T10:17:31.824Z,12.73
2023-02-23T10:20:28.757Z,11.48
2023-02-23T10:23:06.417Z,11.18
2023-02-23T10:25:38.506Z,8.20
2023-02-23T10:28:05.235Z,12.80
2023-02-23T10:30:33.879Z,9.70
2023-02-23T10:33:25.588Z,8.65
2023-02-23T10:36:13.205Z,9.20
2023-02-23T10:38:40.834Z,7.13
2023-02-23T10:41:08.713Z,8.65
2023-02-23T10:43:35.377Z,7.60
2023-02-23T10:46:02.288Z,8.05
2023-02-23T10:48:34.153Z,6.85
2023-02-23T10:51:03.092Z,7.82
2023-02-23T10:53:36.765Z,8.45
2023-02-23T10:56:13.780Z,10.75
2023-02-23T10:58:49.140Z,6.47
2023-02-23T11:01:36.092Z,8.13
2023-02-23T11:04:30.926Z,10.23
2023-02-23T11:07:31.310Z,10.20
2023-02-23T11:09:59.518Z,10.10
2023-02-23T11:12:41.739Z,7.88
2023-02-23T11:15:39.386Z,7.13
2023-02-23T11:18:21.553Z,9.13
2023-02-23T11:20:49.404Z,8.55
2023-02-23T11:23:23.154Z,9.55
2023-02-23T11:25:55.450Z,7.03
2023-02-23T11:28:27.632Z,10.27
2023-02-23T11:30:54.218Z,10.60
2023-02-23T11:33:29.592Z,10.93
2023-02-23T11:36:00.427Z,8.07
2023-02-23T11:38:29.186Z,11.98
2023-02-23T11:41:00.261Z,8.60
2023-02-23T11:43:26.927Z,8.88
2023-02-23T11:45:57.421Z,11.68
2023-02-23T11:48:34.494Z,12.50
2023-02-23T11:51:01.922Z,10.52
2023-02-23T11:53:36.415Z,10.88
2023-02-23T11:56:11.138Z,6.93
2023-02-23T11:58:37.670Z,8.20
2023-02-23T12:01:16.658Z,9.73
2023-02-23T12:03:57.494Z,8.30
2023-02-23T12:06:37.442Z,7.53
2023-02-23T12:09:18.572Z,9.95
2023-02-23T12:11:52.048Z,10.50
2023-02-23T12:14:29.458Z,9.38
2023-02-23T12:17:04.900Z,11.75
2023-02-23T12:19:38.944Z,11.13
2023-02-23T12:22:12.162Z,6.68
2023-02-23T12:24:58.842Z,7.60
2023-02-23T12:27:39.092Z,10.95
2023-02-23T12:30:15.334Z,8.45
2023-02-23T12:32:56.559Z,10.07
2023-02-23T12:35:31.381Z,10.50
2023-02-23T12:38:06.974Z,24.20
2023-02-23T12:40:38.077Z,13.43
2023-02-23T12:43:27.030Z,10.63
2023-02-23T12:46:02.785Z,11.68
2023-02-23T12:48:48.045Z,12.50
2023-02-23T12:51:25.139Z,11.40
2023-02-23T12:53:53.025Z,11.75
2023-02-23T12:56:32.672Z,12.98
2023-02-23T12:59:20.329Z,11.88
2023-02-23T13:02:02.897Z,11.75
2023-02-23T13:04:44.602Z,15.10
2023-02-23T13:07:44.769Z,11.30
2023-02-23T13:10:40.417Z,10.13
2023-02-23T13:13:20.707Z,10.88
2023-02-23T13:16:13.905Z,8.02
2023-02-23T13:19:04.940Z,9.82
2023-02-23T13:21:37.169Z,13.88
2023-02-23T13:24:14.308Z,7.80
2023-02-23T13:27:11.852Z,9.88
2023-02-23T13:29:41.711Z,11.55
2023-02-23T13:32:12.914Z,7.32
2023-02-23T13:34:44.129Z,10.25
2023-02-23T13:37:14.844Z,10.40
2023-02-23T13:40:01.366Z,8.63
2023-02-23T13:42:43.274Z,11.52
2023-02-23T13:45:25.670Z,10.30
2023-02-23T13:48:21.054Z,8.07
2023-02-23T13:51:07.806Z,8.95
2023-02-23T13:54:06.056Z,11.35
2023-02-23T13:56:42.274Z,9.50
2023-02-23T13:59:17.244Z,12.70
2023-02-23T14:01:47.539Z,8.25
2023-02-23T14:04:20.975Z,7.28
2023-02-23T14:07:18.888Z,9.00
2023-02-23T14:09:55.804Z,10.15
2023-02-23T14:12:38.881Z,11.68
2023-02-23T14:15:25.154Z,7.40
2023-02-23T14:18:25.980Z,9.30
2023-02-23T14:20:55.121Z,9.00
2023-02-23T14:23:21.587Z,7.80
2023-02-23T14:26:13.172Z,10.32
2023-02-23T14:28:43.145Z,14.65
2023-02-23T14:31:12.466Z,7.80
2023-02-23T14:33:41.939Z,9.60
2023-02-23T14:36:44.483Z,10.73
2023-02-23T14:39:26.293Z,11.57
2023-02-23T14:41:56.162Z,10.48
2023-02-23T14:44:31.562Z,10.25
2023-02-23T14:47:07.790Z,10.55
2023-02-23T14:49:43.518Z,8.25
2023-02-23T14:52:14.131Z,11.40
2023-02-23T14:54:41.169Z,9.23
2023-02-23T14:57:23.832Z,9.05
2023-02-23T14:59:58.600Z,9.77
2023-02-23T15:02:27.619Z,9.95
2023-02-23T15:04:54.565Z,10.07
2023-02-23T15:07:27.949Z,11.65
2023-02-23T15:09:57.097Z,9.93
2023-02-23T15:12:35.453Z,8.57
2023-02-23T15:15:05.628Z,9.77
2023-02-23T15:17:34.106Z,14.38
2023-02-23T15:20:17.358Z,8.57
2023-02-23T15:22:48.715Z,8.90
2023-02-23T15:25:22.936Z,11.18
2023-02-23T15:27:51.817Z,8.35
2023-02-23T15:30:30.979Z,9.85
2023-02-23T15:33:12.451Z,11.13
2023-02-23T15:35:50.370Z,10.15
2023-02-23T15:38:42.485Z,11.52
2023-02-23T15:41:30.232Z,10.65
2023-02-23T15:44:13.566Z,8.43
2023-02-23T15:46:42.358Z,10.35
2023-02-23T15:49:14.222Z,10.98
2023-02-23T15:51:48.725Z,17.77
2023-02-23T15:54:20.420Z,14.70
2023-02-23T15:59:23.870Z,8.88
2023-02-23T16:01:54.070Z,8.57
2023-02-23T16:04:25.876Z,12.45
2023-02-23T16:07:06.049Z,8.55
2023-02-23T16:09:38.019Z,10.30
2023-02-23T16:12:12.495Z,10.68
2023-02-23T16:15:23.442Z,11.00
2023-02-23T16:18:03.881Z,11.35
2023-02-23T16:20:38.419Z,9.48
2023-02-23T16:23:07.156Z,11.95
2023-02-23T16:25:34.924Z,11.00
2023-02-23T16:28:09.441Z,12.43
2023-02-23T16:30:43.430Z,9.30
2023-02-23T16:33:22.448Z,8.75
2023-02-23T16:36:15.480Z,10.45
2023-02-23T16:38:57.971Z,9.35
2023-02-23T16:41:27.108Z,10.02
2023-02-23T16:43:55.757Z,11.02
2023-02-23T16:46:24.847Z,9.32
2023-02-23T16:48:51.708Z,11.68
2023-02-23T16:51:21.102Z,8.57
2023-02-23T16:53:47.650Z,13.65
2023-02-23T16:56:19.376Z,13.85
2023-02-23T16:58:48.902Z,12.52
2023-02-23T17:01:18.013Z,7.85
2023-02-23T17:03:52.711Z,9.57
2023-02-23T17:06:21.037Z,12.65
2023-02-23T17:08:58.833Z,11.40
2023-02-23T17:11:26.060Z,10.57
2023-02-23T17:13:52.625Z,10.60
2023-02-23T17:16:19.666Z,17.10
2023-02-23T17:18:46.660Z,9.57
2023-02-23T17:21:23.677Z,12.35
2023-02-23T17:23:51.825Z,9.63
2023-02-23T17:26:21.467Z,10.13
2023-02-23T17:28:48.709Z,9.10
2023-02-23T17:31:17.210Z,11.38
2023-02-23T17:33:44.989Z,10.73
2023-02-23T17:36:14.228Z,13.90
2023-02-23T17:38:44.052Z,9.98
2023-02-23T17:41:17.065Z,8.85
2023-02-23T17:43:44.016Z,7.93
2023-02-23T17:46:11.353Z,11.73
2023-02-23T17:48:38.048Z,9.35
2023-02-23T17:51:08.987Z,7.75
2023-02-23T17:53:36.447Z,11.10
2023-02-23T17:56:03.161Z,11.27
2023-02-23T17:58:30.609Z,12.70
2023-02-23T18:00:59.772Z,31.77
2023-02-23T18:03:34.297Z,20.17
2023-02-23T18:06:05.206Z,24.65
2023-02-23T18:08:32.505Z,22.73
2023-02-23T18:10:59.056Z,16.05
2023-02-23T18:13:27.288Z,20.48
2023-02-23T18:15:58.673Z,16.05
2023-02-23T18:18:25.533Z,12.70
2023-02-23T18:20:54.550Z,13.05
2023-02-23T18:23:21.182Z,11.02
2023-02-23T18:25:48.733Z,13.23
2023-02-23T18:28:16.532Z,14.48
2023-02-23T18:30:44.834Z,9.50
2023-02-23T18:33:12.817Z,10.90
2023-02-23T18:35:42.981Z,12.75
2023-02-23T18:38:11.669Z,16.27
2023-02-23T18:40:39.015Z,26.05
2023-02-23T18:43:06.508Z,15.02
2023-02-23T18:45:33.706Z,12.07
2023-02-23T18:48:00.279Z,14.32
2023-02-23T18:50:26.816Z,15.07
2023-02-23T18:52:55.928Z,15.68
2023-02-23T18:55:23.129Z,14.82
2023-02-23T18:57:52.910Z,18.65
2023-02-23T19:00:20.583Z,13.32
2023-02-23T19:02:47.624Z,16.65
2023-02-23T19:05:16.166Z,15.55
2023-02-23T19:07:43.348Z,13.32
2023-02-23T19:10:12.991Z,20.90
2023-02-23T19:12:40.024Z,13.55
2023-02-23T19:15:08.074Z,14.00
2023-02-23T19:17:35.836Z,13.18
2023-02-23T19:20:02.590Z,18.85
2023-02-23T19:22:29.611Z,19.58
2023-02-23T19:24:56.182Z,17.95
2023-02-23T19:27:22.961Z,17.95
2023-02-23T19:29:49.517Z,17.67
2023-02-23T19:32:19.002Z,19.45
2023-02-23T19:34:48.472Z,20.73
2023-02-23T19:37:15.118Z,25.13
2023-02-23T19:39:41.630Z,16.27
2023-02-23T19:42:09.119Z,16.20
2023-02-23T19:44:35.781Z,12.43
2023-02-23T19:47:02.548Z,17.17
2023-02-23T19:49:29.224Z,20.20
2023-02-23T19:51:57.703Z,16.20
2023-02-23T19:54:32.767Z,18.10
2023-02-23T19:56:59.776Z,22.30
2023-02-23T19:59:28.630Z,20.17
2023-02-23T20:01:55.400Z,17.10
2023-02-23T20:04:22.383Z,17.35
2023-02-23T20:06:48.914Z,22.02
2023-02-23T20:09:15.522Z,20.33
2023-02-23T20:11:42.632Z,20.33
2023-02-23T20:14:09.819Z,18.20
2023-02-23T20:16:36.821Z,16.80
2023-02-23T20:19:06.859Z,22.83
2023-02-23T20:21:35.312Z,18.67
2023-02-23T20:24:02.257Z,15.07
2023-02-23T20:26:34.117Z,18.17
2023-02-23T20:29:01.047Z,21.45
2023-02-23T20:31:31.167Z,22.73
2023-02-23T20:34:00.914Z,14.30
2023-02-23T20:36:27.535Z,19.05
2023-02-23T20:38:54.160Z,16.13
2023-02-23T20:41:21.652Z,13.95
2023-02-23T20:43:48.507Z,15.02
2023-02-23T20:46:16.556Z,16.17
2023-02-23T20:48:43.543Z,19.23
2023-02-23T20:51:13.652Z,21.40
2023-02-23T20:53:41.003Z,17.23
2023-02-23T20:56:09.559Z,16.90
2023-02-23T20:58:36.225Z,19.67
2023-02-23T21:01:06.540Z,16.00
2023-02-23T21:03:34.488Z,15.95
2023-02-23T21:06:01.308Z,13.73
2023-02-23T21:08:28.823Z,13.70
2023-02-23T21:10:55.814Z,17.55
2023-02-23T21:13:23.146Z,18.52
2023-02-23T21:15:58.570Z,16.25
2023-02-23T21:18:25.405Z,17.08
2023-02-23T21:20:52.097Z,16.52
2023-02-23T21:23:20.404Z,20.70
2023-02-23T21:25:48.913Z,14.93
2023-02-23T21:28:15.707Z,16.10
2023-02-23T21:30:42.277Z,13.30
2023-02-23T21:33:09.029Z,18.92
2023-02-23T21:35:38.223Z,20.10
2023-02-23T21:38:04.842Z,19.92
2023-02-23T21:40:31.387Z,12.95
2023-02-23T21:42:58.286Z,15.05
2023-02-23T21:45:24.897Z,16.52
2023-02-23T21:47:51.527Z,16.90
2023-02-23T21:50:19.687Z,13.63
2023-02-23T21:52:48.623Z,13.32
2023-02-23T21:55:21.623Z,17.75
2023-02-23T21:57:48.815Z,14.70
2023-02-23T22:00:16.311Z,17.42
2023-02-23T22:02:46.507Z,13.23
2023-02-23T22:05:15.374Z,16.05
2023-02-23T22:07:46.739Z,15.70
2023-02-23T22:10:13.257Z,19.17
2023-02-23T22:12:39.819Z,12.60
2023-02-23T22:15:07.233Z,16.77
2023-02-23T22:17:34.191Z,17.05
2023-02-23T22:20:00.990Z,12.50
2023-02-23T22:22:27.932Z,19.85
2023-02-23T22:24:54.680Z,12.32
2023-02-23T22:27:22.128Z,13.73
2023-02-23T22:29:48.667Z,11.63
2023-02-23T22:32:17.624Z,13.48
2023-02-23T22:34:44.357Z,9.70
2023-02-23T22:37:11.067Z,12.20
2023-02-23T22:39:41.750Z,21.48
2023-02-23T22:42:12.550Z,17.92
2023-02-23T22:44:39.255Z,15.02
2023-02-23T22:47:07.312Z,13.35
2023-02-23T22:49:34.627Z,12.52
2023-02-23T22:52:01.275Z,14.82
2023-02-23T22:54:27.844Z,17.55
2023-02-23T22:56:54.981Z,14.70
2023-02-23T22:59:21.711Z,15.98
2023-02-23T23:01:50.389Z,14.68
2023-02-23T23:04:17.274Z,13.95
2023-02-23T23:06:44.422Z,18.00
2023-02-23T23:09:12.197Z,9.13
2023-02-23T23:11:41.733Z,9.20
2023-02-23T23:14:10.323Z,9.38
2023-02-23T23:16:48.538Z,9.27
2023-02-23T23:19:17.937Z,10.25
2023-02-23T23:21:46.113Z,17.15
2023-02-23T23:24:13.548Z,11.82
2023-02-23T23:26:41.115Z,12.80
2023-02-23T23:29:11.251Z,12.38
2023-02-23T23:31:39.484Z,12.90
2023-02-23T23:34:09.602Z,13.77
2023-02-23T23:36:49.276Z,8.48
2023-02-23T23:39:21.413Z,10.82
2023-02-23T23:41:49.637Z,14.63
2023-02-23T23:44:21.928Z,11.68
2023-02-23T23:46:52.740Z,12.93
2023-02-23T23:49:21.857Z,11.25
2023-02-23T23:51:50.891Z,12.85
2023-02-23T23:54:23.436Z,13.27
2023-02-23T23:56:50.594Z,16.02
2023-02-23T23:59:21.248Z,11.95
